createdAt,value
2018-12-05T00:02:16.848Z,3.67
2018-12-05T00:04:45.915Z,3.78
2018-12-05T00:07:14.149Z,3.74
2018-12-05T00:09:43.351Z,3.57
2018-12-05T00:12:12.169Z,3.57
2018-12-05T00:14:41.226Z,3.50
2018-12-05T00:17:10.493Z,3.51
2018-12-05T00:19:38.398Z,3.39
2018-12-05T00:22:06.398Z,3.36
2018-12-05T00:24:34.475Z,3.44
2018-12-05T00:27:02.840Z,3.42
2018-12-05T00:29:30.837Z,3.46
2018-12-05T00:31:58.953Z,3.41
2018-12-05T00:34:27.562Z,3.36
2018-12-05T00:36:56.845Z,3.43
2018-12-05T00:39:25.321Z,3.43
2018-12-05T00:41:53.630Z,3.42
2018-12-05T00:44:21.685Z,3.37
2018-12-05T00:46:50.782Z,3.62
2018-12-05T00:49:23.591Z,3.46
2018-12-05T00:51:53.078Z,3.49
2018-12-05T00:54:21.294Z,3.46
2018-12-05T00:56:49.362Z,3.55
2018-12-05T00:59:17.689Z,3.72
2018-12-05T01:01:46.027Z,3.55
2018-12-05T01:04:14.810Z,3.55
2018-12-05T01:06:42.859Z,3.71
2018-12-05T01:09:13.212Z,0.86
2018-12-05T01:11:43.028Z,3.67
2018-12-05T01:14:10.992Z,3.61
2018-12-05T01:16:39.023Z,3.67
2018-12-05T01:19:08.988Z,3.64
2018-12-05T01:21:39.678Z,3.74
2018-12-05T01:24:07.810Z,3.73
2018-12-05T01:26:35.892Z,3.67
2018-12-05T01:29:04.708Z,3.60
2018-12-05T01:31:33.278Z,3.65
2018-12-05T01:34:03.430Z,3.53
2018-12-05T01:36:31.425Z,3.55
2018-12-05T01:38:59.339Z,3.49
2018-12-05T01:41:27.503Z,3.57
2018-12-05T01:43:55.644Z,3.67
2018-12-05T01:46:23.719Z,3.63
2018-12-05T01:48:53.168Z,3.57
2018-12-05T01:51:24.036Z,3.95
2018-12-05T01:53:55.085Z,3.88
2018-12-05T01:56:27.129Z,3.83
2018-12-05T01:58:56.316Z,4.05
2018-12-05T02:01:25.083Z,4.22
2018-12-05T02:03:53.707Z,4.30
2018-12-05T02:06:23.054Z,4.20
2018-12-05T02:08:54.039Z,4.48
2018-12-05T02:11:24.305Z,4.32
2018-12-05T02:13:52.710Z,4.35
2018-12-05T02:16:20.933Z,4.30
2018-12-05T02:18:49.650Z,4.29
2018-12-05T02:21:19.291Z,4.18
2018-12-05T02:23:47.691Z,3.93
2018-12-05T02:26:15.934Z,3.80
2018-12-05T02:28:44.105Z,3.84
2018-12-05T02:31:12.307Z,3.91
2018-12-05T02:33:43.047Z,4.05
2018-12-05T02:36:13.174Z,4.14
2018-12-05T02:38:41.178Z,4.04
2018-12-05T02:41:09.726Z,3.72
2018-12-05T02:43:37.827Z,3.71
2018-12-05T02:46:05.991Z,3.79
2018-12-05T02:48:34.040Z,3.77
2018-12-05T02:51:02.147Z,3.60
2018-12-05T02:53:30.100Z,4.00
2018-12-05T02:55:58.059Z,4.08
2018-12-05T02:58:26.591Z,4.12
2018-12-05T03:00:57.433Z,4.23
2018-12-05T03:03:25.389Z,4.14
2018-12-05T03:05:53.465Z,4.15
2018-12-05T03:08:21.450Z,3.99
2018-12-05T03:10:49.449Z,3.94
2018-12-05T03:13:17.391Z,3.96
2018-12-05T03:15:45.389Z,3.86
2018-12-05T03:18:13.806Z,3.77
2018-12-05T03:20:45.531Z,3.68
2018-12-05T03:23:14.312Z,3.58
2018-12-05T03:25:42.440Z,3.58
2018-12-05T03:28:10.496Z,3.74
2018-12-05T03:30:38.623Z,3.58
2018-12-05T03:33:06.602Z,3.49
2018-12-05T03:35:38.711Z,3.51
2018-12-05T03:38:07.120Z,3.65
2018-12-05T03:40:35.123Z,3.75
2018-12-05T03:43:03.382Z,3.85
2018-12-05T03:45:31.776Z,3.81
2018-12-05T03:47:59.964Z,3.82
2018-12-05T03:50:28.147Z,4.17
2018-12-05T03:52:56.342Z,3.89
2018-12-05T03:55:26.344Z,3.73
2018-12-05T03:57:56.020Z,3.87
2018-12-05T04:00:26.951Z,3.79
2018-12-05T04:02:55.717Z,3.72
2018-12-05T04:05:24.168Z,3.57
2018-12-05T04:07:52.568Z,3.48
2018-12-05T04:10:21.998Z,3.50
2018-12-05T04:12:50.288Z,3.37
2018-12-05T04:15:18.535Z,3.37
2018-12-05T04:17:46.476Z,3.27
2018-12-05T04:20:15.157Z,3.34
2018-12-05T04:22:45.176Z,3.42
2018-12-05T04:25:13.224Z,3.40
2018-12-05T04:27:42.725Z,3.55
2018-12-05T04:30:12.887Z,3.59
2018-12-05T04:32:40.875Z,3.60
2018-12-05T04:35:09.028Z,3.72
2018-12-05T04:37:37.198Z,3.87
2018-12-05T04:40:05.500Z,3.85
2018-12-05T04:42:34.036Z,4.10
2018-12-05T04:45:03.188Z,4.16
2018-12-05T04:47:33.504Z,4.06
2018-12-05T04:50:03.299Z,3.92
2018-12-05T04:52:32.074Z,-0.48
2018-12-05T04:55:00.164Z,3.79
2018-12-05T04:57:28.152Z,3.76
2018-12-05T04:59:56.312Z,3.85
2018-12-05T05:02:24.710Z,3.77
2018-12-05T05:04:52.927Z,3.93
2018-12-05T05:07:22.249Z,4.04
2018-12-05T05:09:51.924Z,4.03
2018-12-05T05:12:22.511Z,3.99
2018-12-05T05:14:50.992Z,3.97
2018-12-05T05:17:21.158Z,4.02
2018-12-05T05:19:49.183Z,4.06
2018-12-05T05:22:17.268Z,4.14
2018-12-05T05:24:45.366Z,4.24
2018-12-05T05:27:13.456Z,4.11
2018-12-05T05:29:42.524Z,4.23
2018-12-05T05:32:10.583Z,4.20
2018-12-05T05:34:38.889Z,4.16
2018-12-05T05:37:07.563Z,4.27
2018-12-05T05:39:35.607Z,4.20
2018-12-05T05:42:03.603Z,4.13
2018-12-05T05:44:32.244Z,4.18
2018-12-05T05:47:00.534Z,4.09
2018-12-05T05:49:29.632Z,4.08
2018-12-05T05:51:57.760Z,3.97
2018-12-05T05:54:25.942Z,3.87
2018-12-05T05:56:54.795Z,3.87
2018-12-05T05:59:22.998Z,4.06
2018-12-05T06:01:51.313Z,4.15
2018-12-05T06:04:19.845Z,4.31
2018-12-05T06:06:47.905Z,4.43
2018-12-05T06:09:15.842Z,4.57
2018-12-05T06:11:43.840Z,4.84
2018-12-05T06:14:12.339Z,5.01
2018-12-05T06:16:40.347Z,5.30
2018-12-05T06:19:08.465Z,5.80
2018-12-05T06:21:36.497Z,6.00
2018-12-05T06:24:04.507Z,6.08
2018-12-05T06:26:36.898Z,6.19
2018-12-05T06:29:04.908Z,6.34
2018-12-05T06:31:32.985Z,6.50
2018-12-05T06:34:01.109Z,6.56
2018-12-05T06:36:29.259Z,6.73
2018-12-05T06:38:59.292Z,6.86
2018-12-05T06:41:27.248Z,6.77
2018-12-05T06:43:55.224Z,6.89
2018-12-05T06:46:23.191Z,6.73
2018-12-05T06:48:52.178Z,6.74
2018-12-05T06:51:20.521Z,6.88
2018-12-05T06:53:48.594Z,6.65
2018-12-05T06:56:17.719Z,6.79
2018-12-05T06:58:45.780Z,6.77
2018-12-05T07:01:13.931Z,6.86
2018-12-05T07:03:42.010Z,6.82
2018-12-05T07:06:10.707Z,6.97
2018-12-05T07:08:38.717Z,6.79
2018-12-05T07:11:07.293Z,6.85
2018-12-05T07:13:35.229Z,6.83
2018-12-05T07:16:03.452Z,6.83
2018-12-05T07:18:31.470Z,6.75
2018-12-05T07:21:01.652Z,6.75
2018-12-05T07:23:29.885Z,6.91
2018-12-05T07:25:59.312Z,6.85
2018-12-05T07:28:31.679Z,6.73
2018-12-05T07:31:01.941Z,6.81
2018-12-05T07:50:27.935Z,6.94
2018-12-05T07:52:56.191Z,6.84
2018-12-05T07:55:24.490Z,6.71
2018-12-05T07:57:52.857Z,6.50
2018-12-05T08:00:20.857Z,6.51
2018-12-05T08:02:48.908Z,6.36
2018-12-05T08:05:16.956Z,6.40
2018-12-05T08:07:44.887Z,6.44
2018-12-05T08:10:13.641Z,6.54
2018-12-05T08:12:41.665Z,6.51
2018-12-05T08:15:09.881Z,6.66
2018-12-05T08:17:38.179Z,6.73
2018-12-05T08:20:06.516Z,6.80
2018-12-05T08:23:12.636Z,6.80
2018-12-05T08:25:41.101Z,7.07
2018-12-05T08:31:15.797Z,6.88
2018-12-05T08:34:26.932Z,7.09
2018-12-05T08:36:58.866Z,7.00
2018-12-05T08:39:43.257Z,6.80
2018-12-05T08:44:58.471Z,7.12
2018-12-05T08:47:33.630Z,6.95
2018-12-05T08:50:06.779Z,7.06
2018-12-05T08:52:37.866Z,7.27
2018-12-05T08:55:12.323Z,7.37
2018-12-05T08:57:43.265Z,7.46
2018-12-05T09:00:15.569Z,7.41
2018-12-05T09:02:45.074Z,7.64
2018-12-05T09:05:18.661Z,7.95
2018-12-05T09:07:58.407Z,7.69
2018-12-05T09:11:11.477Z,3.09
2018-12-05T09:13:47.238Z,7.86
2018-12-05T09:16:16.045Z,7.75
2018-12-05T09:18:44.481Z,7.87
2018-12-05T09:24:11.053Z,7.97
2018-12-05T09:27:16.838Z,7.93
2018-12-05T09:29:53.129Z,7.91
2018-12-05T09:32:29.339Z,8.17
2018-12-05T09:34:59.824Z,8.15
2018-12-05T09:37:39.122Z,7.97
2018-12-05T09:44:18.396Z,3.90
2018-12-05T09:46:49.809Z,7.69
2018-12-05T09:49:18.034Z,7.51
2018-12-05T09:51:49.031Z,7.40
2018-12-05T09:54:22.544Z,7.55
2018-12-05T10:00:10.740Z,7.41
2018-12-05T10:02:40.330Z,7.45
2018-12-05T10:05:09.005Z,7.44
2018-12-05T10:07:37.304Z,7.62
2018-12-05T10:10:08.303Z,7.52
2018-12-05T10:12:37.130Z,7.42
2018-12-05T10:15:06.200Z,7.51
2018-12-05T10:17:36.160Z,6.46
2018-12-05T10:20:04.823Z,7.55
2018-12-05T10:22:34.327Z,7.46
2018-12-05T10:25:02.676Z,7.56
2018-12-05T10:27:30.829Z,7.61
2018-12-05T10:29:58.987Z,7.48
2018-12-05T10:32:27.215Z,7.47
2018-12-05T10:34:57.497Z,7.30
2018-12-05T10:37:25.566Z,7.16
2018-12-05T10:39:53.825Z,7.22
2018-12-05T10:42:22.080Z,7.06
2018-12-05T10:44:50.101Z,7.27
2018-12-05T10:47:18.265Z,7.42
2018-12-05T10:49:47.067Z,7.32
2018-12-05T10:52:15.185Z,7.31
2018-12-05T10:54:43.844Z,7.51
2018-12-05T10:57:13.119Z,7.49
2018-12-05T10:59:41.179Z,7.39
2018-12-05T11:02:27.899Z,7.33
2018-12-05T11:05:01.681Z,7.40
2018-12-05T11:07:40.803Z,7.49
2018-12-05T11:13:58.521Z,7.20
2018-12-05T11:16:31.977Z,7.17
2018-12-05T11:19:07.653Z,7.33
2018-12-05T11:21:41.509Z,7.24
2018-12-05T11:24:37.768Z,7.36
2018-12-05T11:27:06.004Z,7.40
2018-12-05T11:29:34.149Z,7.33
2018-12-05T11:32:02.416Z,7.11
2018-12-05T11:34:31.018Z,7.18
2018-12-05T11:36:59.053Z,7.19
2018-12-05T11:39:31.313Z,7.30
2018-12-05T11:42:02.156Z,7.06
2018-12-05T11:44:30.345Z,7.03
2018-12-05T11:47:00.309Z,7.12
2018-12-05T11:49:32.625Z,7.02
2018-12-05T11:52:08.493Z,7.00
2018-12-05T11:54:50.791Z,6.91
2018-12-05T11:57:20.547Z,7.22
2018-12-05T11:59:50.280Z,7.01
2018-12-05T12:02:22.489Z,7.05
2018-12-05T12:04:49.994Z,7.07
2018-12-05T12:07:25.158Z,7.04
2018-12-05T12:09:53.324Z,7.01
2018-12-05T12:13:24.053Z,6.69
2018-12-05T12:15:55.397Z,6.54
2018-12-05T12:18:23.720Z,6.50
2018-12-05T12:20:51.959Z,6.42
2018-12-05T12:23:20.517Z,6.48
2018-12-05T12:25:48.705Z,6.72
2018-12-05T12:28:17.136Z,6.90
2018-12-05T12:30:46.568Z,4.28
2018-12-05T12:33:22.278Z,6.96
2018-12-05T12:35:50.770Z,6.64
2018-12-05T12:38:19.063Z,6.64
2018-12-05T12:40:47.921Z,6.78
2018-12-05T12:43:15.982Z,6.49
2018-12-05T12:45:44.260Z,6.36
2018-12-05T12:48:19.250Z,6.18
2018-12-05T12:50:48.669Z,6.24
2018-12-05T12:53:17.358Z,6.19
2018-12-05T12:55:45.661Z,6.29
2018-12-05T12:58:16.089Z,6.35
2018-12-05T13:00:49.694Z,6.34
2018-12-05T13:03:18.446Z,6.17
2018-12-05T13:05:48.358Z,6.09
2018-12-05T13:08:16.532Z,6.11
2018-12-05T13:10:44.592Z,6.17
2018-12-05T13:13:12.504Z,6.32
2018-12-05T13:15:40.399Z,6.28
2018-12-05T13:18:13.441Z,6.42
2018-12-05T13:20:41.575Z,6.51
2018-12-05T13:23:09.704Z,6.18
2018-12-05T13:25:41.000Z,5.97
2018-12-05T13:28:09.158Z,6.04
2018-12-05T13:30:37.245Z,5.96
2018-12-05T13:33:10.427Z,6.00
2018-12-05T13:35:39.123Z,6.02
2018-12-05T13:38:07.220Z,5.92
2018-12-05T13:40:35.605Z,5.95
2018-12-05T13:43:05.713Z,5.99
2018-12-05T13:45:35.716Z,5.93
2018-12-05T13:48:04.610Z,6.10
2018-12-05T13:50:33.536Z,6.12
2018-12-05T13:53:10.343Z,5.96
2018-12-05T13:55:45.593Z,5.83
2018-12-05T13:58:13.705Z,5.87
2018-12-05T14:00:41.803Z,5.84
2018-12-05T14:03:10.134Z,5.88
2018-12-05T14:05:38.140Z,5.90
2018-12-05T14:08:06.271Z,5.87
2018-12-05T14:10:34.894Z,5.78
2018-12-05T14:13:03.388Z,5.69
2018-12-05T14:15:34.742Z,5.72
2018-12-05T14:18:04.367Z,5.76
2018-12-05T14:20:33.667Z,5.71
2018-12-05T14:23:02.112Z,5.64
2018-12-05T14:25:30.303Z,5.60
2018-12-05T14:31:16.475Z,5.59
2018-12-05T14:33:45.672Z,5.49
2018-12-05T14:36:14.247Z,5.53
2018-12-05T14:38:43.288Z,5.54
2018-12-05T14:41:11.428Z,5.64
2018-12-05T14:43:39.506Z,5.68
2018-12-05T14:46:08.369Z,5.40
2018-12-05T14:48:37.365Z,5.35
2018-12-05T14:51:05.344Z,5.42
2018-12-05T14:53:33.385Z,5.54
2018-12-05T14:56:01.268Z,5.62
2018-12-05T14:58:30.081Z,5.49
2018-12-05T15:01:02.917Z,5.38
2018-12-05T15:03:31.060Z,5.43
2018-12-05T15:05:59.205Z,5.43
2018-12-05T15:08:27.276Z,5.45
2018-12-05T15:10:55.540Z,5.43
2018-12-05T15:13:23.559Z,5.47
2018-12-05T15:16:08.665Z,5.35
2018-12-05T15:18:37.159Z,5.39
2018-12-05T15:21:06.181Z,5.39
2018-12-05T15:23:35.331Z,5.43
2018-12-05T15:26:03.470Z,5.26
2018-12-05T15:28:31.632Z,5.28
2018-12-05T15:34:26.351Z,5.15
2018-12-05T15:36:59.632Z,5.16
2018-12-05T15:39:31.886Z,5.24
2018-12-05T15:42:02.031Z,5.17
2018-12-05T15:44:33.690Z,4.30
2018-12-05T15:47:02.684Z,5.16
2018-12-05T15:49:45.147Z,5.42
2018-12-05T15:52:18.670Z,5.34
2018-12-05T15:54:50.118Z,5.17
2018-12-05T15:57:36.128Z,5.09
2018-12-05T16:00:16.877Z,5.25
2018-12-05T16:02:46.444Z,5.30
2018-12-05T16:05:20.362Z,5.38
2018-12-05T16:08:06.018Z,5.35
2018-12-05T16:10:39.146Z,5.21
2018-12-05T16:13:08.490Z,4.90
2018-12-05T16:15:52.012Z,2.31
2018-12-05T16:18:22.303Z,4.95
2018-12-05T16:20:58.392Z,5.00
2018-12-05T16:23:34.481Z,5.21
2018-12-05T16:26:16.852Z,5.11
2018-12-05T16:28:45.219Z,5.21
2018-12-05T16:31:29.493Z,5.20
2018-12-05T16:37:13.849Z,5.36
2018-12-05T16:39:58.032Z,5.24
2018-12-05T16:42:33.275Z,5.22
2018-12-05T16:52:04.672Z,5.11
2018-12-05T16:54:51.363Z,5.22
2018-12-05T16:57:27.928Z,5.32
2018-12-05T17:04:04.408Z,2.78
2018-12-05T17:09:26.159Z,5.10
2018-12-05T17:11:55.770Z,5.22
2018-12-05T17:14:27.054Z,5.08
2018-12-05T17:17:03.995Z,5.16
2018-12-05T17:19:36.302Z,5.02
2018-12-05T17:22:12.225Z,5.01
2018-12-05T17:24:42.796Z,4.96
2018-12-05T17:27:20.301Z,4.85
2018-12-05T17:29:56.426Z,4.81
2018-12-05T17:32:28.073Z,4.89
2018-12-05T17:34:58.511Z,4.91
2018-12-05T17:37:32.751Z,5.01
2018-12-05T17:40:03.172Z,5.00
2018-12-05T17:42:39.828Z,5.07
2018-12-05T17:45:10.762Z,4.83
2018-12-05T17:47:40.750Z,5.00
2018-12-05T17:50:11.541Z,5.10
2018-12-05T17:52:42.247Z,5.00
2018-12-05T17:55:11.653Z,5.01
2018-12-05T17:57:39.864Z,4.98
2018-12-05T18:00:12.677Z,5.18
2018-12-05T18:02:50.558Z,5.20
2018-12-05T18:05:23.857Z,5.11
2018-12-05T18:07:52.121Z,5.15
2018-12-05T18:10:23.745Z,5.11
2018-12-05T18:12:53.216Z,5.14
2018-12-05T18:15:24.042Z,5.18
2018-12-05T18:17:57.377Z,5.08
2018-12-05T18:20:28.744Z,4.79
2018-12-05T18:23:04.738Z,4.90
2018-12-05T18:25:38.922Z,5.03
2018-12-05T18:28:09.981Z,5.11
2018-12-05T18:30:59.303Z,5.18
2018-12-05T18:33:28.405Z,5.20
2018-12-05T18:35:58.208Z,5.08
2018-12-05T18:41:11.354Z,4.98
2018-12-05T18:43:39.535Z,4.89
2018-12-05T18:46:09.747Z,5.03
2018-12-05T18:48:45.466Z,5.00
2018-12-05T18:51:18.200Z,5.11
2018-12-05T18:53:46.602Z,5.10
2018-12-05T18:56:18.027Z,2.87
2018-12-05T18:59:00.419Z,4.89
2018-12-05T19:01:28.699Z,4.78
2018-12-05T19:04:00.504Z,4.81
2018-12-05T19:06:30.110Z,4.68
2018-12-05T19:08:58.366Z,4.41
2018-12-05T19:11:45.917Z,4.48
2018-12-05T19:14:32.820Z,4.46
2018-12-05T19:17:05.836Z,4.57
2018-12-05T19:24:16.503Z,4.51
2018-12-05T19:26:45.310Z,4.67
2018-12-05T19:29:13.865Z,4.69
2018-12-05T19:31:41.821Z,4.66
2018-12-05T19:34:09.813Z,4.55
2018-12-05T19:36:37.832Z,4.50
2018-12-05T19:39:07.648Z,4.50
2018-12-05T19:41:36.247Z,4.53
2018-12-05T19:44:05.396Z,4.41
2018-12-05T19:46:33.696Z,4.50
2018-12-05T19:49:02.933Z,4.45
2018-12-05T19:51:31.139Z,4.30
2018-12-05T19:53:59.317Z,4.26
2018-12-05T19:56:33.386Z,4.44
2018-12-05T19:59:01.386Z,4.31
2018-12-05T20:01:29.414Z,4.41
2018-12-05T20:03:59.310Z,4.31
2018-12-05T20:06:27.279Z,4.16
2018-12-05T20:08:55.464Z,4.37
2018-12-05T20:11:23.485Z,4.32
2018-12-05T20:13:51.605Z,4.30
2018-12-05T20:16:19.865Z,4.31
2018-12-05T20:18:48.800Z,4.24
2018-12-05T20:21:16.750Z,4.20
2018-12-05T20:23:44.814Z,4.24
2018-12-05T20:26:13.031Z,4.29
2018-12-05T20:28:45.165Z,4.26
2018-12-05T20:31:13.207Z,4.40
2018-12-05T20:33:41.180Z,4.44
2018-12-05T20:36:09.258Z,4.20
2018-12-05T20:38:37.517Z,4.21
2018-12-05T20:41:07.550Z,3.82
2018-12-05T20:43:35.728Z,3.97
2018-12-05T20:46:04.708Z,4.20
2018-12-05T20:48:32.916Z,3.99
2018-12-05T20:51:01.260Z,4.12
2018-12-05T20:53:29.920Z,3.99
2018-12-05T20:55:57.926Z,4.07
2018-12-05T20:58:25.909Z,4.01
2018-12-05T21:00:53.920Z,4.09
2018-12-05T21:03:21.949Z,4.33
2018-12-05T21:05:49.961Z,4.23
2018-12-05T21:08:18.011Z,4.29
2018-12-05T21:10:46.055Z,4.26
2018-12-05T21:16:34.683Z,4.28
2018-12-05T21:19:05.016Z,4.11
2018-12-05T21:21:33.813Z,4.11
2018-12-05T21:24:02.596Z,4.08
2018-12-05T21:26:37.071Z,4.13
2018-12-05T21:29:05.392Z,4.02
2018-12-05T21:31:35.640Z,4.13
2018-12-05T21:34:03.805Z,4.18
2018-12-05T21:36:31.707Z,4.09
2018-12-05T21:38:59.725Z,4.05
2018-12-05T21:41:27.762Z,4.00
2018-12-05T21:43:55.938Z,4.06
2018-12-05T21:46:26.962Z,4.06
2018-12-05T21:48:55.203Z,4.09
2018-12-05T21:51:24.311Z,3.86
2018-12-05T21:53:52.325Z,4.09
2018-12-05T21:56:21.420Z,4.10
2018-12-05T21:58:49.709Z,4.06
2018-12-05T22:01:17.957Z,4.01
2018-12-05T22:03:46.679Z,4.03
2018-12-05T22:06:14.812Z,4.03
2018-12-05T22:08:45.416Z,3.82
2018-12-05T22:11:15.669Z,3.83
2018-12-05T22:13:45.529Z,3.79
2018-12-05T22:16:13.772Z,3.97
2018-12-05T22:18:42.146Z,3.82
2018-12-05T22:21:10.215Z,3.92
2018-12-05T22:23:38.116Z,3.93
2018-12-05T22:26:06.104Z,3.86
2018-12-05T22:28:34.113Z,3.84
2018-12-05T22:31:02.737Z,3.78
2018-12-05T22:33:31.999Z,3.60
2018-12-05T22:36:00.212Z,3.68
2018-12-05T22:38:29.844Z,3.67
2018-12-05T22:40:58.583Z,3.68
2018-12-05T22:43:26.921Z,3.71
2018-12-05T22:45:54.903Z,3.58
2018-12-05T22:48:22.904Z,3.64
2018-12-05T22:50:50.988Z,3.62
2018-12-05T22:53:18.961Z,3.72
2018-12-05T22:55:47.003Z,3.70
2018-12-05T22:58:15.012Z,3.72
2018-12-05T23:00:47.669Z,3.93
2018-12-05T23:03:15.713Z,3.95
2018-12-05T23:05:43.854Z,3.92
2018-12-05T23:08:11.856Z,3.94
2018-12-05T23:10:39.949Z,3.76
2018-12-05T23:13:08.548Z,3.72
2018-12-05T23:15:36.496Z,3.63
2018-12-05T23:18:04.696Z,3.61
2018-12-05T23:20:32.820Z,3.78
2018-12-05T23:23:00.896Z,3.76
2018-12-05T23:25:29.050Z,3.66
2018-12-05T23:27:57.335Z,3.51
2018-12-05T23:30:26.670Z,3.47
2018-12-05T23:32:54.855Z,3.37
2018-12-05T23:35:23.856Z,3.51
2018-12-05T23:37:51.855Z,3.61
2018-12-05T23:40:20.035Z,3.62
2018-12-05T23:42:49.123Z,2.89
2018-12-05T23:48:25.920Z,3.53
2018-12-05T23:50:53.860Z,3.48
2018-12-05T23:53:21.742Z,3.36
2018-12-05T23:55:49.636Z,3.42
2018-12-05T23:58:18.016Z,3.52
